Kerkhoven, Minnesota
Current Conditions -  °F | °C
As of 2:35 AM on Tuesday 21 Oct 2014 (Local Time) from KBDH Reporting Station
Clear Clear  
Wind Chill: 37°   Ceiling: Unl
Heat Index: 43°   Visibility: 10mi
Dew Point: 37°   Wind: 9mph
Humidity: 81%   Direction: 90°E
Pressure: 30.12"   Gusts: NA
Location:  45.19°N, 95.32°W
Report Text: KBDH 210735Z AUTO 09008KT 10SM CLR 06/03 A3012 RMK AO2
Loading
Personal Weather Stations






























Interactive Weather Map
Tropical Storm Tracking
New forecast layout! Learn more

10-Day Weather Forecast

Advertisements
Track Severe Weather on mobile